sensor_id;sensor_type;location;lat;lon;timestamp;pressure;altitude;pressure_sealevel;temperature
18713;BMP280;9485;49.386;8.674;2023-03-01T00:00:00;101397.84;;;4.53
18713;BMP280;9485;49.386;8.674;2023-03-01T00:05:23;101404.66;;;4.52
18713;BMP280;9485;49.386;8.674;2023-03-01T00:10:43;101387.94;;;4.49
18713;BMP280;9485;49.386;8.674;2023-03-01T00:16:07;101397.84;;;4.53
18713;BMP280;9485;49.386;8.674;2023-03-01T00:21:29;101393.38;;;4.56
18713;BMP280;9485;49.386;8.674;2023-03-01T00:26:53;101409.38;;;4.55
18713;BMP280;9485;49.386;8.674;2023-03-01T00:32:15;101399.75;;;4.56
18713;BMP280;9485;49.386;8.674;2023-03-01T00:37:37;101408.50;;;4.58
18713;BMP280;9485;49.386;8.674;2023-03-01T00:43:00;101405.00;;;4.54
18713;BMP280;9485;49.386;8.674;2023-03-01T00:48:21;101406.59;;;4.55
18713;BMP280;9485;49.386;8.674;2023-03-01T00:53:44;101409.03;;;4.53
18713;BMP280;9485;49.386;8.674;2023-03-01T00:59:04;101397.47;;;4.51
18713;BMP280;9485;49.386;8.674;2023-03-01T01:04:25;101401.56;;;4.47
18713;BMP280;9485;49.386;8.674;2023-03-01T01:09:47;101374.47;;;4.44
18713;BMP280;9485;49.386;8.674;2023-03-01T01:15:09;101369.66;;;4.44
18713;BMP280;9485;49.386;8.674;2023-03-01T01:20:32;101364.88;;;4.45
18713;BMP280;9485;49.386;8.674;2023-03-01T01:25:54;101353.22;;;4.46
18713;BMP280;9485;49.386;8.674;2023-03-01T01:31:17;101334.44;;;4.47
18713;BMP280;9485;49.386;8.674;2023-03-01T01:36:38;101318.47;;;4.47
18713;BMP280;9485;49.386;8.674;2023-03-01T01:42:00;101312.94;;;4.44
18713;BMP280;9485;49.386;8.674;2023-03-01T01:47:23;101293.25;;;4.32
18713;BMP280;9485;49.386;8.674;2023-03-01T01:52:48;101333.94;;;4.52
18713;BMP280;9485;49.386;8.674;2023-03-01T01:58:15;101320.72;;;4.52
18713;BMP280;9485;49.386;8.674;2023-03-01T02:03:39;101302.72;;;4.53
18713;BMP280;9485;49.386;8.674;2023-03-01T02:09:10;101296.34;;;4.53
18713;BMP280;9485;49.386;8.674;2023-03-01T02:14:33;101296.25;;;4.56
18713;BMP280;9485;49.386;8.674;2023-03-01T02:20:14;101291.47;;;4.57
18713;BMP280;9485;49.386;8.674;2023-03-01T02:25:47;101289.97;;;4.52
18713;BMP280;9485;49.386;8.674;2023-03-01T02:31:19;101284.88;;;4.47
18713;BMP280;9485;49.386;8.674;2023-03-01T02:37:07;101287.03;;;4.40
18713;BMP280;9485;49.386;8.674;2023-03-01T02:42:35;101280.31;;;4.38
18713;BMP280;9485;49.386;8.674;2023-03-01T02:47:59;101272.81;;;4.35
18713;BMP280;9485;49.386;8.674;2023-03-01T02:53:28;101266.94;;;4.29
18713;BMP280;9485;49.386;8.674;2023-03-01T02:58:52;101264.22;;;4.26
18713;BMP280;9485;49.386;8.674;2023-03-01T03:04:17;101269.09;;;4.22
18713;BMP280;9485;49.386;8.674;2023-03-01T03:09:41;101257.22;;;4.18
18713;BMP280;9485;49.386;8.674;2023-03-01T03:15:03;101259.63;;;4.16
18713;BMP280;9485;49.386;8.674;2023-03-01T03:20:29;101248.47;;;4.16
18713;BMP280;9485;49.386;8.674;2023-03-01T03:25:51;101240.50;;;4.14
18713;BMP280;9485;49.386;8.674;2023-03-01T03:31:12;101241.72;;;4.13
18713;BMP280;9485;49.386;8.674;2023-03-01T03:36:34;101238.94;;;4.13
18713;BMP280;9485;49.386;8.674;2023-03-01T03:41:55;101239.75;;;4.14
18713;BMP280;9485;49.386;8.674;2023-03-01T03:47:16;101221.81;;;4.11
18713;BMP280;9485;49.386;8.674;2023-03-01T03:52:38;101225.03;;;4.10
18713;BMP280;9485;49.386;8.674;2023-03-01T03:58:01;101208.44;;;4.03
18713;BMP280;9485;49.386;8.674;2023-03-01T04:03:27;101206.69;;;4.09
18713;BMP280;9485;49.386;8.674;2023-03-01T04:08:49;101202.69;;;4.10
18713;BMP280;9485;49.386;8.674;2023-03-01T04:14:17;101195.09;;;4.10
18713;BMP280;9485;49.386;8.674;2023-03-01T04:19:39;101199.34;;;4.15
18713;BMP280;9485;49.386;8.674;2023-03-01T04:25:06;101201.75;;;4.16
18713;BMP280;9485;49.386;8.674;2023-03-01T04:30:27;101216.84;;;4.19
18713;BMP280;9485;49.386;8.674;2023-03-01T04:35:48;101200.94;;;4.16
18713;BMP280;9485;49.386;8.674;2023-03-01T04:41:11;101214.91;;;4.16
18713;BMP280;9485;49.386;8.674;2023-03-01T04:46:31;101203.81;;;4.12
18713;BMP280;9485;49.386;8.674;2023-03-01T04:51:52;101208.28;;;4.10
18713;BMP280;9485;49.386;8.674;2023-03-01T04:57:14;101205.09;;;4.08
18713;BMP280;9485;49.386;8.674;2023-03-01T05:02:35;101200.56;;;3.98
18713;BMP280;9485;49.386;8.674;2023-03-01T05:07:58;101204.06;;;4.02
18713;BMP280;9485;49.386;8.674;2023-03-01T05:13:21;101210.09;;;4.00
18713;BMP280;9485;49.386;8.674;2023-03-01T05:18:42;101200.19;;;3.96
18713;BMP280;9485;49.386;8.674;2023-03-01T05:24:04;101207.00;;;3.95
18713;BMP280;9485;49.386;8.674;2023-03-01T05:29:32;101210.25;;;3.93
18713;BMP280;9485;49.386;8.674;2023-03-01T05:34:54;101213.88;;;3.90
18713;BMP280;9485;49.386;8.674;2023-03-01T05:40:17;101216.41;;;3.85
18713;BMP280;9485;49.386;8.674;2023-03-01T05:45:41;101218.41;;;3.84
18713;BMP280;9485;49.386;8.674;2023-03-01T05:51:06;101212.06;;;3.84
18713;BMP280;9485;49.386;8.674;2023-03-01T05:56:26;101199.75;;;3.81
18713;BMP280;9485;49.386;8.674;2023-03-01T06:01:48;101195.72;;;3.82
18713;BMP280;9485;49.386;8.674;2023-03-01T06:07:09;101204.44;;;3.84
18713;BMP280;9485;49.386;8.674;2023-03-01T06:12:31;101204.81;;;3.86
18713;BMP280;9485;49.386;8.674;2023-03-01T06:17:55;101204.81;;;3.86
18713;BMP280;9485;49.386;8.674;2023-03-01T06:23:17;101213.19;;;3.86
18713;BMP280;9485;49.386;8.674;2023-03-01T06:28:37;101209.94;;;3.88
18713;BMP280;9485;49.386;8.674;2023-03-01T06:34:00;101209.53;;;3.89
18713;BMP280;9485;49.386;8.674;2023-03-01T06:39:21;101209.53;;;3.89
18713;BMP280;9485;49.386;8.674;2023-03-01T06:44:41;101212.88;;;4.00
18713;BMP280;9485;49.386;8.674;2023-03-01T06:50:05;101212.09;;;4.00
18713;BMP280;9485;49.386;8.674;2023-03-01T06:55:28;101211.88;;;4.10
18713;BMP280;9485;49.386;8.674;2023-03-01T07:00:50;101187.81;;;3.97
18713;BMP280;9485;49.386;8.674;2023-03-01T07:06:13;101215.97;;;4.22
18713;BMP280;9485;49.386;8.674;2023-03-01T07:11:35;101210.66;;;4.27
18713;BMP280;9485;49.386;8.674;2023-03-01T07:16:56;101210.84;;;4.36
18713;BMP280;9485;49.386;8.674;2023-03-01T07:22:19;101210.69;;;4.43
18713;BMP280;9485;49.386;8.674;2023-03-01T07:27:41;101191.69;;;4.50
18713;BMP280;9485;49.386;8.674;2023-03-01T07:33:04;101170.09;;;4.67
18713;BMP280;9485;49.386;8.674;2023-03-01T07:38:32;101171.41;;;4.78
18713;BMP280;9485;49.386;8.674;2023-03-01T07:43:53;101177.53;;;4.89
18713;BMP280;9485;49.386;8.674;2023-03-01T07:49:16;101157.97;;;5.02
18713;BMP280;9485;49.386;8.674;2023-03-01T07:54:39;101156.38;;;5.17
18713;BMP280;9485;49.386;8.674;2023-03-01T08:00:11;101154.31;;;5.33
18713;BMP280;9485;49.386;8.674;2023-03-01T08:05:33;101128.81;;;5.56
18713;BMP280;9485;49.386;8.674;2023-03-01T08:10:56;101153.56;;;6.23
18713;BMP280;9485;49.386;8.674;2023-03-01T08:16:18;101163.47;;;6.86
18713;BMP280;9485;49.386;8.674;2023-03-01T08:21:40;101168.97;;;7.44
18713;BMP280;9485;49.386;8.674;2023-03-01T08:27:04;101170.56;;;7.97
18713;BMP280;9485;49.386;8.674;2023-03-01T08:32:25;101155.97;;;8.59
18713;BMP280;9485;49.386;8.674;2023-03-01T08:37:46;101141.66;;;9.47
18713;BMP280;9485;49.386;8.674;2023-03-01T08:43:09;101128.38;;;10.62
18713;BMP280;9485;49.386;8.674;2023-03-01T08:48:31;101125.41;;;11.79
18713;BMP280;9485;49.386;8.674;2023-03-01T08:53:52;101127.06;;;13.22
18713;BMP280;9485;49.386;8.674;2023-03-01T08:59:20;101123.50;;;14.34
18713;BMP280;9485;49.386;8.674;2023-03-01T09:04:42;101127.97;;;15.35
18713;BMP280;9485;49.386;8.674;2023-03-01T09:10:06;101125.28;;;16.44
18713;BMP280;9485;49.386;8.674;2023-03-01T09:15:29;101127.63;;;17.75
18713;BMP280;9485;49.386;8.674;2023-03-01T09:20:51;101118.66;;;18.83
18713;BMP280;9485;49.386;8.674;2023-03-01T09:26:17;101129.91;;;18.52
18713;BMP280;9485;49.386;8.674;2023-03-01T09:31:51;101121.97;;;18.39
18713;BMP280;9485;49.386;8.674;2023-03-01T09:37:14;101129.91;;;18.52
18713;BMP280;9485;49.386;8.674;2023-03-01T09:42:46;101121.63;;;18.72
18713;BMP280;9485;49.386;8.674;2023-03-01T09:48:16;101111.50;;;18.12
18713;BMP280;9485;49.386;8.674;2023-03-01T09:53:41;101118.34;;;17.69
18713;BMP280;9485;49.386;8.674;2023-03-01T09:59:19;101097.78;;;17.76
18713;BMP280;9485;49.386;8.674;2023-03-01T10:04:50;101084.06;;;18.57
18713;BMP280;9485;49.386;8.674;2023-03-01T10:10:28;101092.97;;;19.75
18713;BMP280;9485;49.386;8.674;2023-03-01T10:15:54;101106.34;;;21.05
18713;BMP280;9485;49.386;8.674;2023-03-01T10:21:20;101077.13;;;22.27
18713;BMP280;9485;49.386;8.674;2023-03-01T10:26:54;101083.88;;;22.50
18713;BMP280;9485;49.386;8.674;2023-03-01T10:32:16;101074.59;;;22.23
18713;BMP280;9485;49.386;8.674;2023-03-01T10:37:58;101067.25;;;21.94
18713;BMP280;9485;49.386;8.674;2023-03-01T10:43:21;101061.00;;;22.24
18713;BMP280;9485;49.386;8.674;2023-03-01T10:48:45;101051.13;;;23.16
18713;BMP280;9485;49.386;8.674;2023-03-01T10:54:18;101039.84;;;23.75
18713;BMP280;9485;49.386;8.674;2023-03-01T11:00:00;101037.94;;;23.93
18713;BMP280;9485;49.386;8.674;2023-03-01T11:05:33;101016.91;;;22.77
18713;BMP280;9485;49.386;8.674;2023-03-01T11:11:20;101014.00;;;21.81
18713;BMP280;9485;49.386;8.674;2023-03-01T11:16:48;101003.41;;;21.55
18713;BMP280;9485;49.386;8.674;2023-03-01T11:27:41;100977.69;;;21.04
18713;BMP280;9485;49.386;8.674;2023-03-01T11:33:18;100963.91;;;20.50
18713;BMP280;9485;49.386;8.674;2023-03-01T11:38:46;100956.31;;;21.45
18713;BMP280;9485;49.386;8.674;2023-03-01T11:44:19;100943.78;;;21.35
18713;BMP280;9485;49.386;8.674;2023-03-01T11:50:09;100942.50;;;20.90
18713;BMP280;9485;49.386;8.674;2023-03-01T11:55:58;100925.28;;;20.77
18713;BMP280;9485;49.386;8.674;2023-03-01T12:01:51;100928.72;;;20.76
18713;BMP280;9485;49.386;8.674;2023-03-01T12:07:34;100898.59;;;21.77
18713;BMP280;9485;49.386;8.674;2023-03-01T12:13:34;100864.84;;;22.75
18713;BMP280;9485;49.386;8.674;2023-03-01T12:19:24;100892.34;;;23.71
18713;BMP280;9485;49.386;8.674;2023-03-01T12:25:13;100879.81;;;24.21
18713;BMP280;9485;49.386;8.674;2023-03-01T12:31:16;100878.91;;;24.73
18713;BMP280;9485;49.386;8.674;2023-03-01T12:42:51;100854.31;;;24.96
18713;BMP280;9485;49.386;8.674;2023-03-01T12:48:34;100842.59;;;24.94
18713;BMP280;9485;49.386;8.674;2023-03-01T12:54:10;100828.47;;;24.66
18713;BMP280;9485;49.386;8.674;2023-03-01T12:59:40;100828.41;;;24.27
18713;BMP280;9485;49.386;8.674;2023-03-01T13:05:26;100820.47;;;23.73
18713;BMP280;9485;49.386;8.674;2023-03-01T13:10:58;100817.41;;;23.27
18713;BMP280;9485;49.386;8.674;2023-03-01T13:16:39;100807.97;;;23.26
18713;BMP280;9485;49.386;8.674;2023-03-01T13:22:27;100801.66;;;22.63
18713;BMP280;9485;49.386;8.674;2023-03-01T13:27:50;100788.38;;;22.09
18713;BMP280;9485;49.386;8.674;2023-03-01T13:33:41;100780.44;;;21.95
18713;BMP280;9485;49.386;8.674;2023-03-01T13:39:05;100780.03;;;21.35
18713;BMP280;9485;49.386;8.674;2023-03-01T13:44:48;100775.00;;;20.54
18713;BMP280;9485;49.386;8.674;2023-03-01T13:50:19;100772.13;;;20.21
18713;BMP280;9485;49.386;8.674;2023-03-01T13:55:44;100763.88;;;19.79
18713;BMP280;9485;49.386;8.674;2023-03-01T14:01:21;100770.69;;;19.24
18713;BMP280;9485;49.386;8.674;2023-03-01T14:06:42;100757.66;;;18.29
18713;BMP280;9485;49.386;8.674;2023-03-01T14:12:18;100756.38;;;17.46
18713;BMP280;9485;49.386;8.674;2023-03-01T14:17:53;100743.50;;;17.10
18713;BMP280;9485;49.386;8.674;2023-03-01T14:23:20;100732.09;;;17.10
18713;BMP280;9485;49.386;8.674;2023-03-01T14:28:43;100740.75;;;16.99
18713;BMP280;9485;49.386;8.674;2023-03-01T14:34:06;100737.31;;;16.77
18713;BMP280;9485;49.386;8.674;2023-03-01T14:39:27;100730.25;;;16.54
18713;BMP280;9485;49.386;8.674;2023-03-01T14:44:51;100728.22;;;16.03
18713;BMP280;9485;49.386;8.674;2023-03-01T14:50:24;100727.13;;;15.66
18713;BMP280;9485;49.386;8.674;2023-03-01T14:55:50;100731.06;;;15.58
18713;BMP280;9485;49.386;8.674;2023-03-01T15:01:16;100730.56;;;15.48
18713;BMP280;9485;49.386;8.674;2023-03-01T15:06:43;100736.00;;;15.52
18713;BMP280;9485;49.386;8.674;2023-03-01T15:12:34;100740.63;;;15.60
18713;BMP280;9485;49.386;8.674;2023-03-01T15:17:59;100750.44;;;15.59
18713;BMP280;9485;49.386;8.674;2023-03-01T15:23:28;100729.34;;;15.33
18713;BMP280;9485;49.386;8.674;2023-03-01T15:28:54;100768.16;;;15.25
18713;BMP280;9485;49.386;8.674;2023-03-01T15:34:24;100781.06;;;15.04
18713;BMP280;9485;49.386;8.674;2023-03-01T15:39:56;100780.31;;;14.93
18713;BMP280;9485;49.386;8.674;2023-03-01T15:45:24;100782.38;;;14.76
18713;BMP280;9485;49.386;8.674;2023-03-01T15:50:55;100783.63;;;14.53
18713;BMP280;9485;49.386;8.674;2023-03-01T15:56:19;100793.44;;;14.30
18713;BMP280;9485;49.386;8.674;2023-03-01T16:01:41;100777.88;;;14.15
18713;BMP280;9485;49.386;8.674;2023-03-01T16:07:03;100781.44;;;14.10
18713;BMP280;9485;49.386;8.674;2023-03-01T16:12:25;100750.84;;;13.66
18713;BMP280;9485;49.386;8.674;2023-03-01T16:17:47;100771.44;;;13.56
18713;BMP280;9485;49.386;8.674;2023-03-01T16:23:15;100773.66;;;13.36
18713;BMP280;9485;49.386;8.674;2023-03-01T16:28:38;100769.59;;;13.06
18713;BMP280;9485;49.386;8.674;2023-03-01T16:34:01;100779.13;;;12.77
18713;BMP280;9485;49.386;8.674;2023-03-01T16:39:29;100767.84;;;12.52
18713;BMP280;9485;49.386;8.674;2023-03-01T16:44:56;100750.97;;;12.12
18713;BMP280;9485;49.386;8.674;2023-03-01T16:50:43;100746.84;;;11.88
18713;BMP280;9485;49.386;8.674;2023-03-01T16:56:09;100776.94;;;11.86
18713;BMP280;9485;49.386;8.674;2023-03-01T17:01:33;100765.34;;;11.64
18713;BMP280;9485;49.386;8.674;2023-03-01T17:06:56;100758.84;;;11.43
18713;BMP280;9485;49.386;8.674;2023-03-01T17:12:17;100754.19;;;11.21
18713;BMP280;9485;49.386;8.674;2023-03-01T17:17:40;100765.06;;;10.93
18713;BMP280;9485;49.386;8.674;2023-03-01T17:23:01;100762.69;;;10.72
18713;BMP280;9485;49.386;8.674;2023-03-01T17:28:23;100746.16;;;10.50
18713;BMP280;9485;49.386;8.674;2023-03-01T17:33:45;100746.38;;;10.33
18713;BMP280;9485;49.386;8.674;2023-03-01T17:39:06;100766.28;;;10.15
18713;BMP280;9485;49.386;8.674;2023-03-01T17:44:27;100747.19;;;9.95
18713;BMP280;9485;49.386;8.674;2023-03-01T17:49:49;100751.91;;;9.75
18713;BMP280;9485;49.386;8.674;2023-03-01T17:55:10;100765.19;;;9.60
18713;BMP280;9485;49.386;8.674;2023-03-01T18:00:32;100769.03;;;9.48
18713;BMP280;9485;49.386;8.674;2023-03-01T18:05:54;100771.03;;;9.33
18713;BMP280;9485;49.386;8.674;2023-03-01T18:11:15;100774.06;;;9.21
18713;BMP280;9485;49.386;8.674;2023-03-01T18:16:36;100777.59;;;9.07
18713;BMP280;9485;49.386;8.674;2023-03-01T18:21:59;100798.47;;;8.92
18713;BMP280;9485;49.386;8.674;2023-03-01T18:27:20;100790.22;;;8.79
18713;BMP280;9485;49.386;8.674;2023-03-01T18:32:41;100804.06;;;8.68
18713;BMP280;9485;49.386;8.674;2023-03-01T18:38:04;100784.69;;;8.61
18713;BMP280;9485;49.386;8.674;2023-03-01T18:43:25;100785.34;;;8.56
18713;BMP280;9485;49.386;8.674;2023-03-01T18:48:48;100782.38;;;8.51
18713;BMP280;9485;49.386;8.674;2023-03-01T18:54:11;100773.13;;;8.50
18713;BMP280;9485;49.386;8.674;2023-03-01T18:59:32;100771.28;;;8.47
18713;BMP280;9485;49.386;8.674;2023-03-01T19:04:52;100771.13;;;8.51
18713;BMP280;9485;49.386;8.674;2023-03-01T19:10:20;100776.25;;;8.52
18713;BMP280;9485;49.386;8.674;2023-03-01T19:15:40;100767.81;;;8.52
18713;BMP280;9485;49.386;8.674;2023-03-01T19:21:03;100765.47;;;8.51
18713;BMP280;9485;49.386;8.674;2023-03-01T19:26:27;100762.50;;;8.54
18713;BMP280;9485;49.386;8.674;2023-03-01T19:31:47;100766.09;;;8.55
18713;BMP280;9485;49.386;8.674;2023-03-01T19:37:08;100750.00;;;8.55
18713;BMP280;9485;49.386;8.674;2023-03-01T19:42:31;100756.38;;;8.56
18713;BMP280;9485;49.386;8.674;2023-03-01T19:47:51;100754.81;;;8.55
18713;BMP280;9485;49.386;8.674;2023-03-01T19:53:13;100749.50;;;8.57
18713;BMP280;9485;49.386;8.674;2023-03-01T19:58:37;100752.47;;;8.62
18713;BMP280;9485;49.386;8.674;2023-03-01T20:03:58;100756.06;;;8.63
18713;BMP280;9485;49.386;8.674;2023-03-01T20:09:20;100746.84;;;8.62
18713;BMP280;9485;49.386;8.674;2023-03-01T20:14:42;100745.75;;;8.60
18713;BMP280;9485;49.386;8.674;2023-03-01T20:20:04;100755.44;;;8.59
18713;BMP280;9485;49.386;8.674;2023-03-01T20:25:25;100752.63;;;8.59
18713;BMP280;9485;49.386;8.674;2023-03-01T20:30:47;100763.09;;;8.58
18713;BMP280;9485;49.386;8.674;2023-03-01T20:36:08;100770.94;;;8.54
18713;BMP280;9485;49.386;8.674;2023-03-01T20:41:29;100759.84;;;8.51
18713;BMP280;9485;49.386;8.674;2023-03-01T20:46:51;100721.31;;;8.24
18713;BMP280;9485;49.386;8.674;2023-03-01T20:52:12;100754.91;;;8.37
18713;BMP280;9485;49.386;8.674;2023-03-01T20:57:33;100745.81;;;8.33
18713;BMP280;9485;49.386;8.674;2023-03-01T21:02:56;100745.53;;;8.31
18713;BMP280;9485;49.386;8.674;2023-03-01T21:08:16;100736.13;;;8.34
18713;BMP280;9485;49.386;8.674;2023-03-01T21:13:37;100741.63;;;8.28
18713;BMP280;9485;49.386;8.674;2023-03-01T21:18:59;100734.91;;;8.26
18713;BMP280;9485;49.386;8.674;2023-03-01T21:24:21;100724.59;;;8.23
18713;BMP280;9485;49.386;8.674;2023-03-01T21:29:44;100733.97;;;8.20
18713;BMP280;9485;49.386;8.674;2023-03-01T21:35:08;100724.78;;;8.20
18713;BMP280;9485;49.386;8.674;2023-03-01T21:40:28;100725.84;;;8.22
18713;BMP280;9485;49.386;8.674;2023-03-01T21:45:49;100712.28;;;8.21
18713;BMP280;9485;49.386;8.674;2023-03-01T21:51:14;100701.31;;;8.14
18713;BMP280;9485;49.386;8.674;2023-03-01T21:56:34;100712.91;;;8.07
18713;BMP280;9485;49.386;8.674;2023-03-01T22:01:57;100674.84;;;7.79
18713;BMP280;9485;49.386;8.674;2023-03-01T22:07:19;100700.59;;;7.86
18713;BMP280;9485;49.386;8.674;2023-03-01T22:12:40;100694.69;;;7.75
18713;BMP280;9485;49.386;8.674;2023-03-01T22:18:00;100692.81;;;7.72
18713;BMP280;9485;49.386;8.674;2023-03-01T22:23:23;100681.88;;;7.65
18713;BMP280;9485;49.386;8.674;2023-03-01T22:28:44;100688.47;;;7.62
18713;BMP280;9485;49.386;8.674;2023-03-01T22:34:05;100694.09;;;7.53
18713;BMP280;9485;49.386;8.674;2023-03-01T22:39:27;100694.41;;;7.55
18713;BMP280;9485;49.386;8.674;2023-03-01T22:44:47;100696.09;;;7.53
18713;BMP280;9485;49.386;8.674;2023-03-01T22:50:12;100700.47;;;7.54
18713;BMP280;9485;49.386;8.674;2023-03-01T22:55:35;100699.84;;;7.50
18713;BMP280;9485;49.386;8.674;2023-03-01T23:00:56;100704.53;;;7.44
18713;BMP280;9485;49.386;8.674;2023-03-01T23:06:18;100696.88;;;7.36
18713;BMP280;9485;49.386;8.674;2023-03-01T23:11:40;100680.00;;;7.09
18713;BMP280;9485;49.386;8.674;2023-03-01T23:17:01;100695.75;;;6.97
18713;BMP280;9485;49.386;8.674;2023-03-01T23:22:23;100700.56;;;6.88
18713;BMP280;9485;49.386;8.674;2023-03-01T23:27:45;100701.16;;;6.74
18713;BMP280;9485;49.386;8.674;2023-03-01T23:33:06;100688.66;;;6.66
18713;BMP280;9485;49.386;8.674;2023-03-01T23:38:27;100688.94;;;6.59
18713;BMP280;9485;49.386;8.674;2023-03-01T23:43:51;100682.56;;;6.59
18713;BMP280;9485;49.386;8.674;2023-03-01T23:49:14;100678.84;;;6.62
18713;BMP280;9485;49.386;8.674;2023-03-01T23:54:35;100679.78;;;6.68
18713;BMP280;9485;49.386;8.674;2023-03-01T23:59:58;100684.94;;;6.69
